createdAt,value
2017-12-05T00:00:14.372Z,7.40
2017-12-05T00:02:41.405Z,7.50
2017-12-05T00:05:08.129Z,7.50
2017-12-05T00:07:34.128Z,7.50
2017-12-05T00:10:00.133Z,7.50
2017-12-05T00:12:26.164Z,7.50
2017-12-05T00:14:52.386Z,7.50
2017-12-05T00:17:18.363Z,7.60
2017-12-05T00:19:45.125Z,7.60
2017-12-05T00:22:11.188Z,7.60
2017-12-05T00:24:37.929Z,7.60
2017-12-05T00:27:03.945Z,7.60
2017-12-05T00:29:30.178Z,7.60
2017-12-05T00:31:56.184Z,7.70
2017-12-05T00:34:22.183Z,7.70
2017-12-05T00:36:48.177Z,7.70
2017-12-05T00:39:14.912Z,7.70
2017-12-05T00:41:40.910Z,7.70
2017-12-05T00:44:06.890Z,7.80
2017-12-05T00:46:32.860Z,7.80
2017-12-05T00:48:58.832Z,7.80
2017-12-05T00:51:25.675Z,7.90
2017-12-05T00:53:51.653Z,7.90
2017-12-05T00:56:17.626Z,8.00
2017-12-05T00:58:43.608Z,8.00
2017-12-05T01:01:10.323Z,8.00
2017-12-05T01:03:36.279Z,8.00
2017-12-05T01:06:03.160Z,8.00
2017-12-05T01:08:29.139Z,8.00
2017-12-05T01:10:55.853Z,8.10
2017-12-05T01:13:21.839Z,8.00
2017-12-05T01:15:47.828Z,8.10
2017-12-05T01:18:14.542Z,8.10
2017-12-05T01:20:41.300Z,8.10
2017-12-05T01:23:08.027Z,8.10
2017-12-05T01:25:34.029Z,8.10
2017-12-05T01:28:00.276Z,8.10
2017-12-05T01:30:26.261Z,8.10
2017-12-05T01:32:52.250Z,8.20
2017-12-05T01:35:18.239Z,8.20
2017-12-05T01:37:44.224Z,8.20
2017-12-05T01:40:10.216Z,8.20
2017-12-05T01:42:36.248Z,8.20
2017-12-05T01:45:02.231Z,8.20
2017-12-05T01:47:28.255Z,8.20
2017-12-05T01:49:54.248Z,8.20
2017-12-05T01:52:20.215Z,8.20
2017-12-05T01:54:47.228Z,8.30
2017-12-05T01:57:13.244Z,8.20
2017-12-05T01:59:39.225Z,8.20
2017-12-05T02:02:05.260Z,8.30
2017-12-05T02:04:31.299Z,8.30
2017-12-05T02:06:57.365Z,8.30
2017-12-05T02:09:24.295Z,8.30
2017-12-05T02:11:50.329Z,8.30
2017-12-05T02:14:17.216Z,8.30
2017-12-05T02:16:43.214Z,8.30
2017-12-05T02:19:09.228Z,8.30
2017-12-05T02:21:35.960Z,8.30
2017-12-05T02:24:02.873Z,8.30
2017-12-05T02:26:28.844Z,8.30
2017-12-05T02:28:54.820Z,8.30
2017-12-05T02:31:21.164Z,8.30
2017-12-05T02:33:47.156Z,8.30
2017-12-05T02:36:13.872Z,8.30
2017-12-05T02:38:39.870Z,8.30
2017-12-05T02:41:08.819Z,8.40
2017-12-05T02:43:34.809Z,8.30
2017-12-05T02:46:00.788Z,8.30
2017-12-05T02:48:27.517Z,8.40
2017-12-05T02:50:53.477Z,8.40
2017-12-05T02:53:19.632Z,8.40
2017-12-05T02:55:45.682Z,8.40
2017-12-05T02:58:11.648Z,8.40
2017-12-05T03:00:37.626Z,8.40
2017-12-05T03:03:03.587Z,8.40
2017-12-05T03:05:29.879Z,8.40
2017-12-05T03:07:55.851Z,8.40
2017-12-05T03:10:21.820Z,8.40
2017-12-05T03:12:47.836Z,8.40
2017-12-05T03:15:13.839Z,8.40
2017-12-05T03:17:39.825Z,8.40
2017-12-05T03:20:05.814Z,8.30
2017-12-05T03:22:32.527Z,8.40
2017-12-05T03:24:58.499Z,8.30
2017-12-05T03:27:24.487Z,8.40
2017-12-05T03:29:50.457Z,8.40
2017-12-05T03:32:16.500Z,8.40
2017-12-05T03:34:43.286Z,8.40
2017-12-05T03:37:09.988Z,8.40
2017-12-05T03:39:35.974Z,8.40
2017-12-05T03:42:01.961Z,8.40
2017-12-05T03:44:28.666Z,8.40
2017-12-05T03:46:54.687Z,8.40
2017-12-05T03:49:20.952Z,8.40
2017-12-05T03:51:47.668Z,8.40
2017-12-05T03:54:13.720Z,8.40
2017-12-05T03:56:40.856Z,8.40
2017-12-05T03:59:06.809Z,8.40
2017-12-05T04:01:32.845Z,8.40
2017-12-05T04:03:58.827Z,8.40
2017-12-05T04:06:25.617Z,8.40
2017-12-05T04:08:51.682Z,8.40
2017-12-05T04:11:17.656Z,8.40
2017-12-05T04:13:43.635Z,8.40
2017-12-05T04:16:10.373Z,8.40
2017-12-05T04:18:37.089Z,8.40
2017-12-05T04:21:10.200Z,8.50
2017-12-05T04:23:36.952Z,8.40
2017-12-05T04:26:03.676Z,8.50
2017-12-05T04:28:29.642Z,8.50
2017-12-05T04:30:55.628Z,8.50
2017-12-05T04:33:22.432Z,8.50
2017-12-05T04:35:48.416Z,8.50
2017-12-05T04:38:14.395Z,8.50
2017-12-05T04:40:40.424Z,8.50
2017-12-05T04:43:06.395Z,8.50
2017-12-05T04:45:32.416Z,8.50
2017-12-05T04:47:58.375Z,8.50
2017-12-05T04:50:24.363Z,8.50
2017-12-05T04:52:50.365Z,8.50
2017-12-05T04:55:16.336Z,8.50
2017-12-05T04:57:42.328Z,8.40
2017-12-05T05:00:08.613Z,8.50
2017-12-05T05:02:35.332Z,8.40
2017-12-05T05:05:01.313Z,8.50
2017-12-05T05:07:27.316Z,8.50
2017-12-05T05:09:53.301Z,8.50
2017-12-05T05:12:19.279Z,8.40
2017-12-05T05:14:45.610Z,8.40
2017-12-05T05:17:11.637Z,8.40
2017-12-05T05:19:37.627Z,8.40
2017-12-05T05:22:03.637Z,8.40
2017-12-05T05:24:30.323Z,8.40
2017-12-05T05:26:56.296Z,8.40
2017-12-05T05:29:23.322Z,8.40
2017-12-05T05:31:49.292Z,8.40
2017-12-05T05:34:15.227Z,8.40
2017-12-05T05:36:41.385Z,8.40
2017-12-05T05:39:07.348Z,8.40
2017-12-05T05:41:33.323Z,8.40
2017-12-05T05:43:59.315Z,8.40
2017-12-05T05:46:25.289Z,8.40
2017-12-05T05:48:52.028Z,8.40
2017-12-05T05:51:18.805Z,8.40
2017-12-05T05:53:44.794Z,8.40
2017-12-05T05:56:11.512Z,8.40
2017-12-05T05:58:37.492Z,8.30
2017-12-05T06:01:03.484Z,8.50
2017-12-05T06:03:30.204Z,8.40
2017-12-05T06:05:56.937Z,8.40
2017-12-05T06:08:22.908Z,8.40
2017-12-05T06:10:48.916Z,8.40
2017-12-05T06:13:14.875Z,8.40
2017-12-05T06:15:40.843Z,8.40
2017-12-05T06:18:07.766Z,8.30
2017-12-05T06:20:34.149Z,8.30
2017-12-05T06:23:00.113Z,8.30
2017-12-05T06:25:26.374Z,8.20
2017-12-05T06:27:53.088Z,8.20
2017-12-05T06:30:19.051Z,8.20
2017-12-05T06:32:45.043Z,8.20
2017-12-05T06:35:11.769Z,8.20
2017-12-05T06:37:37.752Z,8.20
2017-12-05T06:40:04.122Z,8.20
2017-12-05T06:42:30.098Z,8.20
2017-12-05T06:44:56.194Z,8.20
2017-12-05T06:47:23.107Z,8.20
2017-12-05T06:49:49.112Z,8.20
2017-12-05T06:52:15.104Z,8.20
2017-12-05T06:54:41.086Z,8.20
2017-12-05T06:57:07.811Z,8.20
2017-12-05T06:59:33.784Z,8.20
2017-12-05T07:01:59.759Z,8.20
2017-12-05T07:04:25.734Z,8.20
2017-12-05T07:06:51.740Z,8.10
2017-12-05T07:09:17.714Z,8.10
2017-12-05T07:11:43.695Z,8.10
2017-12-05T07:14:09.711Z,8.10
2017-12-05T07:16:35.716Z,8.00
2017-12-05T07:19:01.694Z,8.10
2017-12-05T07:21:27.696Z,8.10
2017-12-05T07:23:53.717Z,8.10
2017-12-05T07:26:19.753Z,8.10
2017-12-05T07:28:45.783Z,8.00
2017-12-05T07:31:11.764Z,8.00
2017-12-05T07:33:37.752Z,8.00
2017-12-05T07:36:04.784Z,8.00
2017-12-05T07:38:30.756Z,8.00
2017-12-05T07:40:56.716Z,8.00
2017-12-05T07:43:22.684Z,8.00
2017-12-05T07:45:48.662Z,7.90
2017-12-05T07:48:16.286Z,8.00
2017-12-05T07:50:42.245Z,8.00
2017-12-05T07:53:08.975Z,8.00
2017-12-05T07:55:34.929Z,7.90
2017-12-05T07:58:01.761Z,7.90
2017-12-05T08:00:27.748Z,7.90
2017-12-05T08:02:53.731Z,8.00
2017-12-05T08:05:19.726Z,8.00
2017-12-05T08:07:46.448Z,8.00
2017-12-05T08:10:12.428Z,7.90
2017-12-05T08:12:38.676Z,7.90
2017-12-05T08:15:04.635Z,8.00
2017-12-05T08:17:31.538Z,8.00
2017-12-05T08:19:57.522Z,8.00
2017-12-05T08:22:23.524Z,7.90
2017-12-05T08:24:50.253Z,8.00
2017-12-05T08:27:16.228Z,8.00
2017-12-05T08:29:42.267Z,8.00
2017-12-05T08:32:08.231Z,8.10
2017-12-05T08:34:34.936Z,8.10
2017-12-05T08:37:00.928Z,8.10
2017-12-05T08:39:27.209Z,8.10
2017-12-05T08:41:53.194Z,8.10
2017-12-05T08:44:19.178Z,8.10
2017-12-05T08:46:45.884Z,8.10
2017-12-05T08:49:11.865Z,8.10
2017-12-05T08:51:37.831Z,8.10
2017-12-05T08:54:03.820Z,8.10
2017-12-05T08:56:29.853Z,8.20
2017-12-05T08:58:55.870Z,8.20
2017-12-05T09:01:21.850Z,8.20
2017-12-05T09:03:47.930Z,8.20
2017-12-05T09:06:13.895Z,8.20
2017-12-05T09:08:39.874Z,8.20
2017-12-05T09:11:06.222Z,8.20
2017-12-05T09:13:32.184Z,8.30
2017-12-05T09:15:58.148Z,8.20
2017-12-05T09:18:24.148Z,8.30
2017-12-05T09:20:50.165Z,8.20
2017-12-05T09:23:16.160Z,8.30
2017-12-05T09:25:42.172Z,8.30
2017-12-05T09:28:08.886Z,8.20
2017-12-05T09:30:34.884Z,8.20
2017-12-05T09:33:00.898Z,8.30
2017-12-05T09:35:26.870Z,8.30
2017-12-05T09:37:53.637Z,8.40
2017-12-05T09:40:19.877Z,8.30
2017-12-05T09:42:45.849Z,8.20
2017-12-05T09:45:12.568Z,8.30
2017-12-05T09:47:38.588Z,8.30
2017-12-05T09:50:04.556Z,8.30
2017-12-05T09:52:30.503Z,8.30
2017-12-05T09:54:56.505Z,8.40
2017-12-05T09:57:22.468Z,8.40
2017-12-05T09:59:48.460Z,8.50
2017-12-05T10:02:14.447Z,8.40
2017-12-05T10:04:40.411Z,8.40
2017-12-05T10:07:06.376Z,8.40
2017-12-05T10:09:33.117Z,8.30
2017-12-05T10:11:59.093Z,8.30
2017-12-05T10:14:25.143Z,8.30
2017-12-05T10:16:51.179Z,8.30
2017-12-05T10:19:17.203Z,8.40
2017-12-05T10:21:43.204Z,8.40
2017-12-05T10:24:09.201Z,8.40
2017-12-05T10:26:35.160Z,8.40
2017-12-05T10:29:01.204Z,8.40
2017-12-05T10:31:27.944Z,8.50
2017-12-05T10:33:54.661Z,8.40
2017-12-05T10:36:20.647Z,8.40
2017-12-05T10:38:46.622Z,8.50
2017-12-05T10:41:13.351Z,8.40
2017-12-05T10:43:39.331Z,8.40
2017-12-05T10:46:05.543Z,8.50
2017-12-05T10:48:31.524Z,8.50
2017-12-05T10:50:57.470Z,8.50
2017-12-05T10:53:23.642Z,8.50
2017-12-05T10:55:49.612Z,8.50
2017-12-05T10:58:16.332Z,8.50
2017-12-05T11:00:42.339Z,8.50
2017-12-05T11:03:08.688Z,8.60
2017-12-05T11:05:35.432Z,8.50
2017-12-05T11:08:02.153Z,8.50
2017-12-05T11:10:28.386Z,8.50
2017-12-05T11:12:54.371Z,8.50
2017-12-05T11:15:20.364Z,8.50
2017-12-05T11:17:46.670Z,8.60
2017-12-05T11:20:13.425Z,8.60
2017-12-05T11:22:39.377Z,8.60
2017-12-05T11:25:05.369Z,8.50
2017-12-05T11:27:31.344Z,8.50
2017-12-05T11:29:57.333Z,8.60
2017-12-05T11:32:23.289Z,8.60
2017-12-05T11:34:49.244Z,8.60
2017-12-05T11:37:15.944Z,8.60
2017-12-05T11:39:41.940Z,8.60
2017-12-05T11:42:07.928Z,8.60
2017-12-05T11:44:34.628Z,8.80
2017-12-05T11:47:00.740Z,8.80
2017-12-05T11:49:26.753Z,8.80
2017-12-05T11:51:52.724Z,8.80
2017-12-05T11:54:18.741Z,8.80
2017-12-05T11:56:45.463Z,8.80
2017-12-05T11:59:11.452Z,8.80
2017-12-05T12:01:37.634Z,8.80
2017-12-05T12:04:04.375Z,8.70
2017-12-05T12:06:31.117Z,8.80
2017-12-05T12:08:57.825Z,8.70
2017-12-05T12:11:23.803Z,8.70
2017-12-05T12:13:49.754Z,8.80
2017-12-05T12:16:15.788Z,8.80
2017-12-05T12:18:41.783Z,8.80
2017-12-05T12:21:07.779Z,8.80
2017-12-05T12:23:33.789Z,8.80
2017-12-05T12:26:00.492Z,8.80
2017-12-05T12:28:26.501Z,8.80
2017-12-05T12:30:52.502Z,8.80
2017-12-05T12:33:18.493Z,8.80
2017-12-05T12:35:45.329Z,8.80
2017-12-05T12:38:12.071Z,8.80
2017-12-05T12:40:38.039Z,8.80
2017-12-05T12:43:04.033Z,8.90
2017-12-05T12:45:30.242Z,8.80
2017-12-05T12:47:56.967Z,8.80
2017-12-05T12:50:22.925Z,8.80
2017-12-05T12:52:49.559Z,8.90
2017-12-05T12:55:15.555Z,8.80
2017-12-05T12:57:42.256Z,8.80
2017-12-05T13:00:08.625Z,8.80
2017-12-05T13:02:35.357Z,8.80
2017-12-05T13:05:01.365Z,8.80
2017-12-05T13:07:27.683Z,8.80
2017-12-05T13:09:53.680Z,8.80
2017-12-05T13:12:19.656Z,8.80
2017-12-05T13:14:53.227Z,8.80
2017-12-05T13:17:19.202Z,8.80
2017-12-05T13:19:45.180Z,8.80
2017-12-05T13:22:11.401Z,8.80
2017-12-05T13:24:37.374Z,8.80
2017-12-05T13:27:03.346Z,8.80
2017-12-05T13:29:29.680Z,8.70
2017-12-05T13:31:55.652Z,8.80
2017-12-05T13:34:21.636Z,8.80
2017-12-05T13:36:47.635Z,8.80
2017-12-05T13:39:13.625Z,8.80
2017-12-05T13:41:39.651Z,8.80
2017-12-05T13:44:05.636Z,8.80
2017-12-05T13:46:32.383Z,8.80
2017-12-05T13:48:58.352Z,8.80
2017-12-05T13:51:24.344Z,8.80
2017-12-05T13:53:50.309Z,8.80
2017-12-05T13:56:16.291Z,8.80
2017-12-05T13:58:42.263Z,8.80
2017-12-05T14:01:08.228Z,8.80
2017-12-05T14:03:34.209Z,8.80
2017-12-05T14:06:00.246Z,8.80
2017-12-05T14:08:26.960Z,8.70
2017-12-05T14:10:53.162Z,8.70
2017-12-05T14:13:19.146Z,8.70
2017-12-05T14:15:45.162Z,8.70
2017-12-05T14:18:11.930Z,8.80
2017-12-05T14:20:37.938Z,8.70
2017-12-05T14:23:03.917Z,8.70
2017-12-05T14:25:29.912Z,8.70
2017-12-05T14:27:56.184Z,8.70
2017-12-05T14:30:22.916Z,8.60
2017-12-05T14:32:48.880Z,8.60
2017-12-05T14:35:14.844Z,8.60
2017-12-05T14:37:40.968Z,8.70
2017-12-05T14:40:06.960Z,8.70
2017-12-05T14:42:32.916Z,8.70
2017-12-05T14:44:58.946Z,8.60
2017-12-05T14:47:24.928Z,8.70
2017-12-05T14:49:50.933Z,8.70
2017-12-05T14:52:17.224Z,8.70
2017-12-05T14:54:43.964Z,8.70
2017-12-05T14:57:10.701Z,8.70
2017-12-05T14:59:37.456Z,8.70
2017-12-05T15:02:03.429Z,8.70
2017-12-05T15:04:29.413Z,8.70
2017-12-05T15:06:55.708Z,8.70
2017-12-05T15:09:22.420Z,8.70
2017-12-05T15:11:48.420Z,8.70
2017-12-05T15:14:15.508Z,8.70
2017-12-05T15:16:41.492Z,8.70
2017-12-05T15:19:07.525Z,8.70
2017-12-05T15:21:33.566Z,8.70
2017-12-05T15:23:59.556Z,8.70
2017-12-05T15:26:25.517Z,8.70
2017-12-05T15:28:52.280Z,8.60
2017-12-05T15:31:19.018Z,8.60
2017-12-05T15:33:45.741Z,8.50
2017-12-05T15:36:11.731Z,8.60
2017-12-05T15:38:37.727Z,8.50
2017-12-05T15:41:03.709Z,8.60
2017-12-05T15:43:29.715Z,8.50
2017-12-05T15:45:55.780Z,8.50
2017-12-05T15:48:21.777Z,8.60
2017-12-05T15:50:47.788Z,8.50
2017-12-05T15:53:13.764Z,8.50
2017-12-05T15:55:39.736Z,8.50
2017-12-05T15:58:05.724Z,8.50
2017-12-05T16:00:31.696Z,8.50
2017-12-05T16:02:58.465Z,8.50
2017-12-05T16:05:24.428Z,8.40
2017-12-05T16:07:50.416Z,8.50
2017-12-05T16:10:16.397Z,8.50
2017-12-05T16:12:43.387Z,8.50
2017-12-05T16:15:09.364Z,8.50
2017-12-05T16:17:36.080Z,8.40
2017-12-05T16:20:02.171Z,8.40
2017-12-05T16:22:28.209Z,8.50
2017-12-05T16:24:54.218Z,8.50
2017-12-05T16:27:20.217Z,8.40
2017-12-05T16:29:46.204Z,8.50
2017-12-05T16:32:12.369Z,8.50
2017-12-05T16:34:38.442Z,8.40
2017-12-05T16:37:04.412Z,8.50
2017-12-05T16:39:30.413Z,8.50
2017-12-05T16:41:57.168Z,8.50
2017-12-05T16:44:23.127Z,8.50
2017-12-05T16:46:49.121Z,8.50
2017-12-05T16:49:15.412Z,8.50
2017-12-05T16:51:41.386Z,8.50
2017-12-05T16:54:07.357Z,8.50
2017-12-05T16:56:34.089Z,8.50
2017-12-05T16:59:00.080Z,8.50
2017-12-05T17:01:26.073Z,8.50
2017-12-05T17:03:52.044Z,8.50
2017-12-05T17:06:18.051Z,8.40
2017-12-05T17:08:44.017Z,8.50
2017-12-05T17:11:10.746Z,8.50
2017-12-05T17:13:37.794Z,8.50
2017-12-05T17:16:04.519Z,8.40
2017-12-05T17:18:30.490Z,8.40
2017-12-05T17:20:56.502Z,8.40
2017-12-05T17:23:22.511Z,8.40
2017-12-05T17:25:49.263Z,8.30
2017-12-05T17:28:15.287Z,8.30
2017-12-05T17:30:41.276Z,8.20
2017-12-05T17:33:08.017Z,8.60
2017-12-05T17:35:34.757Z,8.60
2017-12-05T17:38:01.513Z,8.40
2017-12-05T17:40:28.220Z,8.30
2017-12-05T17:42:54.232Z,8.30
2017-12-05T17:45:20.189Z,8.20
2017-12-05T17:47:46.939Z,8.20
2017-12-05T17:50:12.917Z,8.10
2017-12-05T17:52:38.893Z,8.20
2017-12-05T17:55:04.927Z,8.20
2017-12-05T17:57:30.899Z,8.10
2017-12-05T17:59:56.890Z,8.10
2017-12-05T18:02:22.985Z,8.10
2017-12-05T18:04:48.970Z,8.10
2017-12-05T18:07:14.952Z,8.00
2017-12-05T18:09:40.949Z,8.00
2017-12-05T18:12:06.925Z,8.00
2017-12-05T18:14:32.923Z,8.00
2017-12-05T18:16:58.921Z,8.10
2017-12-05T18:19:24.911Z,8.10
2017-12-05T18:21:51.636Z,8.20
2017-12-05T18:24:17.857Z,8.10
2017-12-05T18:26:43.897Z,8.20
2017-12-05T18:29:09.840Z,8.20
2017-12-05T18:31:35.864Z,8.10
2017-12-05T18:34:01.820Z,8.10
2017-12-05T18:36:27.793Z,8.10
2017-12-05T18:38:54.563Z,8.20
2017-12-05T18:41:20.558Z,8.10
2017-12-05T18:43:48.289Z,8.20
2017-12-05T18:46:14.270Z,8.20
2017-12-05T18:48:40.250Z,8.10
2017-12-05T18:51:07.167Z,8.10
2017-12-05T18:53:34.654Z,8.00
2017-12-05T18:56:01.477Z,8.10
2017-12-05T18:58:28.269Z,8.10
2017-12-05T19:00:54.278Z,8.10
2017-12-05T19:03:20.263Z,8.20
2017-12-05T19:05:46.257Z,8.20
2017-12-05T19:08:12.284Z,8.10
2017-12-05T19:10:38.252Z,8.10
2017-12-05T19:13:05.003Z,8.20
2017-12-05T19:15:30.984Z,8.20
2017-12-05T19:17:57.051Z,8.20
2017-12-05T19:20:22.984Z,8.20
2017-12-05T19:22:48.987Z,8.20
2017-12-05T19:25:15.053Z,8.20
2017-12-05T19:27:41.020Z,8.20
2017-12-05T19:30:07.069Z,8.20
2017-12-05T19:32:33.371Z,8.20
2017-12-05T19:35:00.095Z,8.20
2017-12-05T19:37:26.824Z,8.10
2017-12-05T19:39:52.877Z,8.10
2017-12-05T19:42:19.622Z,8.10
2017-12-05T19:44:45.663Z,8.10
2017-12-05T19:47:11.698Z,8.10
2017-12-05T19:49:37.816Z,8.10
2017-12-05T19:52:03.804Z,8.10
2017-12-05T19:54:30.540Z,8.00
2017-12-05T19:56:57.335Z,8.00
2017-12-05T19:59:23.387Z,8.00
2017-12-05T20:01:49.394Z,8.00
2017-12-05T20:04:15.373Z,8.10
2017-12-05T20:06:41.401Z,8.10
2017-12-05T20:09:07.428Z,8.00
2017-12-05T20:11:33.445Z,8.10
2017-12-05T20:13:59.634Z,8.10
2017-12-05T20:16:26.468Z,8.10
2017-12-05T20:18:52.537Z,8.10
2017-12-05T20:21:18.932Z,8.10
2017-12-05T20:23:45.760Z,8.10
2017-12-05T20:26:12.577Z,8.20
2017-12-05T20:28:38.976Z,8.10
2017-12-05T20:31:05.138Z,8.10
2017-12-05T20:33:31.183Z,8.10
2017-12-05T20:35:57.232Z,8.10
2017-12-05T20:38:23.273Z,8.10
2017-12-05T20:40:49.366Z,8.10
2017-12-05T20:43:16.809Z,8.10
2017-12-05T20:45:43.642Z,8.10
2017-12-05T20:48:09.787Z,8.10
2017-12-05T20:50:35.909Z,8.20
2017-12-05T20:53:02.860Z,8.10
2017-12-05T20:55:29.620Z,8.10
2017-12-05T20:57:55.667Z,8.10
2017-12-05T21:00:22.164Z,8.20
2017-12-05T21:02:48.912Z,8.10
2017-12-05T21:05:14.963Z,8.10
2017-12-05T21:07:41.413Z,8.10
2017-12-05T21:10:07.389Z,8.00
2017-12-05T21:12:40.601Z,8.10
2017-12-05T21:15:06.586Z,8.10
2017-12-05T21:17:33.296Z,8.10
2017-12-05T21:19:59.639Z,8.10
2017-12-05T21:22:26.405Z,8.20
2017-12-05T21:24:52.384Z,8.10
2017-12-05T21:27:18.392Z,8.10
2017-12-05T21:29:44.416Z,8.00
2017-12-05T21:32:10.435Z,8.00
2017-12-05T21:34:38.021Z,7.90
2017-12-05T21:37:04.757Z,7.90
2017-12-05T21:39:30.876Z,7.90
2017-12-05T21:41:57.935Z,7.90
2017-12-05T21:44:24.671Z,7.80
2017-12-05T21:46:50.644Z,7.80
2017-12-05T21:49:17.648Z,7.90
2017-12-05T21:51:43.621Z,7.90
2017-12-05T21:54:09.584Z,7.90
2017-12-05T21:56:42.594Z,7.80
2017-12-05T21:59:09.293Z,7.90
2017-12-05T22:01:35.276Z,7.90
2017-12-05T22:04:01.265Z,7.80
2017-12-05T22:06:28.035Z,7.80
2017-12-05T22:08:54.730Z,7.90
2017-12-05T22:11:20.724Z,7.80
2017-12-05T22:13:46.709Z,7.90
2017-12-05T22:16:12.737Z,7.90
2017-12-05T22:18:39.116Z,7.80
2017-12-05T22:21:06.188Z,7.80
2017-12-05T22:23:32.961Z,7.70
2017-12-05T22:25:58.960Z,7.70
2017-12-05T22:28:25.798Z,7.70
2017-12-05T22:30:54.855Z,7.70
2017-12-05T22:33:20.856Z,7.70
2017-12-05T22:35:46.848Z,7.80
2017-12-05T22:38:12.888Z,7.70
2017-12-05T22:40:38.862Z,7.70
2017-12-05T22:43:05.737Z,7.80
2017-12-05T22:45:32.336Z,7.70
2017-12-05T22:47:58.332Z,7.70
2017-12-05T22:50:24.541Z,7.70
2017-12-05T22:52:51.941Z,7.70
2017-12-05T22:55:17.956Z,7.70
2017-12-05T22:57:43.964Z,7.70
2017-12-05T23:00:10.776Z,7.60
2017-12-05T23:02:36.772Z,7.60
2017-12-05T23:05:03.480Z,7.60
2017-12-05T23:07:29.825Z,7.60
2017-12-05T23:09:55.791Z,7.60
2017-12-05T23:12:21.828Z,7.60
2017-12-05T23:14:48.049Z,7.60
2017-12-05T23:17:14.013Z,7.60
2017-12-05T23:19:40.796Z,7.60
2017-12-05T23:22:07.182Z,7.60
2017-12-05T23:24:33.939Z,7.50
2017-12-05T23:27:00.661Z,7.50
2017-12-05T23:29:26.716Z,7.50
2017-12-05T23:31:52.689Z,7.50
2017-12-05T23:34:18.710Z,7.50
2017-12-05T23:36:44.705Z,7.50
2017-12-05T23:39:10.699Z,7.70
2017-12-05T23:41:36.672Z,7.70
2017-12-05T23:44:02.743Z,7.70
2017-12-05T23:46:28.732Z,7.70
2017-12-05T23:48:54.708Z,7.70
2017-12-05T23:51:20.766Z,7.70
2017-12-05T23:53:46.796Z,7.60
2017-12-05T23:56:12.836Z,7.60
2017-12-05T23:58:46.469Z,7.60
